sensor_id;sensor_type;location;lat;lon;timestamp;P1;durP1;ratioP1;P2;durP2;ratioP2
9330;SDS011;4704;50.470;12.072;2023-06-22T00:02:02;7.15;;;6.63;;
9330;SDS011;4704;50.470;12.072;2023-06-22T00:04:30;6.65;;;6.15;;
9330;SDS011;4704;50.470;12.072;2023-06-22T00:06:57;7.07;;;6.57;;
9330;SDS011;4704;50.470;12.072;2023-06-22T00:09:25;7.13;;;6.57;;
9330;SDS011;4704;50.470;12.072;2023-06-22T00:11:52;6.90;;;6.40;;
9330;SDS011;4704;50.470;12.072;2023-06-22T00:14:22;6.88;;;6.38;;
9330;SDS011;4704;50.470;12.072;2023-06-22T00:16:49;7.13;;;6.55;;
9330;SDS011;4704;50.470;12.072;2023-06-22T00:19:22;6.68;;;6.18;;
9330;SDS011;4704;50.470;12.072;2023-06-22T00:21:50;7.18;;;6.65;;
9330;SDS011;4704;50.470;12.072;2023-06-22T00:24:18;7.13;;;6.63;;
9330;SDS011;4704;50.470;12.072;2023-06-22T00:26:46;7.10;;;6.60;;
9330;SDS011;4704;50.470;12.072;2023-06-22T00:29:13;6.88;;;6.38;;
9330;SDS011;4704;50.470;12.072;2023-06-22T00:31:43;7.35;;;6.85;;
9330;SDS011;4704;50.470;12.072;2023-06-22T00:34:11;6.70;;;6.30;;
9330;SDS011;4704;50.470;12.072;2023-06-22T00:36:38;7.20;;;6.60;;
9330;SDS011;4704;50.470;12.072;2023-06-22T00:39:06;7.22;;;6.70;;
9330;SDS011;4704;50.470;12.072;2023-06-22T00:41:34;7.30;;;6.70;;
9330;SDS011;4704;50.470;12.072;2023-06-22T00:44:02;7.10;;;6.60;;
9330;SDS011;4704;50.470;12.072;2023-06-22T00:46:29;6.85;;;6.30;;
9330;SDS011;4704;50.470;12.072;2023-06-22T00:48:59;7.18;;;6.68;;
9330;SDS011;4704;50.470;12.072;2023-06-22T00:51:27;7.32;;;6.70;;
9330;SDS011;4704;50.470;12.072;2023-06-22T00:53:54;6.90;;;6.40;;
9330;SDS011;4704;50.470;12.072;2023-06-22T00:56:22;7.55;;;6.95;;
9330;SDS011;4704;50.470;12.072;2023-06-22T00:58:51;6.90;;;6.32;;
9330;SDS011;4704;50.470;12.072;2023-06-22T01:01:19;7.30;;;6.80;;
9330;SDS011;4704;50.470;12.072;2023-06-22T01:03:49;7.18;;;6.68;;
9330;SDS011;4704;50.470;12.072;2023-06-22T01:06:21;7.05;;;6.45;;
9330;SDS011;4704;50.470;12.072;2023-06-22T01:08:53;6.75;;;6.22;;
9330;SDS011;4704;50.470;12.072;2023-06-22T01:11:25;6.68;;;6.18;;
9330;SDS011;4704;50.470;12.072;2023-06-22T01:13:54;6.70;;;6.20;;
9330;SDS011;4704;50.470;12.072;2023-06-22T01:16:25;7.15;;;6.60;;
9330;SDS011;4704;50.470;12.072;2023-06-22T01:18:54;6.82;;;6.40;;
9330;SDS011;4704;50.470;12.072;2023-06-22T01:21:24;7.03;;;6.45;;
9330;SDS011;4704;50.470;12.072;2023-06-22T01:23:58;7.22;;;6.63;;
9330;SDS011;4704;50.470;12.072;2023-06-22T01:26:33;6.45;;;6.05;;
9330;SDS011;4704;50.470;12.072;2023-06-22T01:29:04;6.53;;;6.03;;
9330;SDS011;4704;50.470;12.072;2023-06-22T01:31:32;6.95;;;6.43;;
9330;SDS011;4704;50.470;12.072;2023-06-22T01:34:02;6.72;;;6.20;;
9330;SDS011;4704;50.470;12.072;2023-06-22T01:36:30;6.82;;;6.32;;
9330;SDS011;4704;50.470;12.072;2023-06-22T01:38:58;6.63;;;6.13;;
9330;SDS011;4704;50.470;12.072;2023-06-22T01:41:26;7.10;;;6.60;;
9330;SDS011;4704;50.470;12.072;2023-06-22T01:43:55;6.28;;;5.78;;
9330;SDS011;4704;50.470;12.072;2023-06-22T01:46:24;7.18;;;6.60;;
9330;SDS011;4704;50.470;12.072;2023-06-22T01:48:52;6.75;;;6.25;;
9330;SDS011;4704;50.470;12.072;2023-06-22T01:51:20;6.50;;;6.00;;
9330;SDS011;4704;50.470;12.072;2023-06-22T01:53:48;6.70;;;6.20;;
9330;SDS011;4704;50.470;12.072;2023-06-22T01:56:15;7.55;;;6.95;;
9330;SDS011;4704;50.470;12.072;2023-06-22T01:58:46;7.30;;;6.80;;
9330;SDS011;4704;50.470;12.072;2023-06-22T02:01:16;6.93;;;6.35;;
9330;SDS011;4704;50.470;12.072;2023-06-22T02:03:50;6.95;;;6.45;;
9330;SDS011;4704;50.470;12.072;2023-06-22T02:06:21;6.95;;;6.45;;
9330;SDS011;4704;50.470;12.072;2023-06-22T02:08:49;6.78;;;6.30;;
9330;SDS011;4704;50.470;12.072;2023-06-22T02:11:19;6.75;;;6.25;;
9330;SDS011;4704;50.470;12.072;2023-06-22T02:13:47;6.50;;;6.10;;
9330;SDS011;4704;50.470;12.072;2023-06-22T02:16:16;6.63;;;6.13;;
9330;SDS011;4704;50.470;12.072;2023-06-22T02:18:46;7.13;;;6.63;;
9330;SDS011;4704;50.470;12.072;2023-06-22T02:21:17;6.75;;;6.25;;
9330;SDS011;4704;50.470;12.072;2023-06-22T02:23:45;7.00;;;6.50;;
9330;SDS011;4704;50.470;12.072;2023-06-22T02:26:13;6.60;;;6.10;;
9330;SDS011;4704;50.470;12.072;2023-06-22T02:28:40;7.20;;;6.70;;
9330;SDS011;4704;50.470;12.072;2023-06-22T02:31:08;7.18;;;6.68;;
9330;SDS011;4704;50.470;12.072;2023-06-22T02:33:36;6.78;;;6.28;;
9330;SDS011;4704;50.470;12.072;2023-06-22T02:36:04;7.10;;;6.50;;
9330;SDS011;4704;50.470;12.072;2023-06-22T02:38:35;6.68;;;6.18;;
9330;SDS011;4704;50.470;12.072;2023-06-22T02:41:03;6.90;;;6.40;;
9330;SDS011;4704;50.470;12.072;2023-06-22T02:43:31;6.80;;;6.28;;
9330;SDS011;4704;50.470;12.072;2023-06-22T02:45:59;7.00;;;6.35;;
9330;SDS011;4704;50.470;12.072;2023-06-22T02:48:26;6.90;;;6.40;;
9330;SDS011;4704;50.470;12.072;2023-06-22T02:50:55;7.60;;;6.97;;
9330;SDS011;4704;50.470;12.072;2023-06-22T02:53:23;7.40;;;6.75;;
9330;SDS011;4704;50.470;12.072;2023-06-22T02:55:52;6.72;;;6.30;;
9330;SDS011;4704;50.470;12.072;2023-06-22T02:58:20;6.90;;;6.40;;
9330;SDS011;4704;50.470;12.072;2023-06-22T03:00:47;6.85;;;6.35;;
9330;SDS011;4704;50.470;12.072;2023-06-22T03:03:18;7.03;;;6.53;;
9330;SDS011;4704;50.470;12.072;2023-06-22T03:05:46;7.60;;;7.00;;
9330;SDS011;4704;50.470;12.072;2023-06-22T03:08:13;6.78;;;6.30;;
9330;SDS011;4704;50.470;12.072;2023-06-22T03:10:41;6.75;;;6.30;;
9330;SDS011;4704;50.470;12.072;2023-06-22T03:13:10;7.22;;;6.63;;
9330;SDS011;4704;50.470;12.072;2023-06-22T03:15:37;7.18;;;6.65;;
9330;SDS011;4704;50.470;12.072;2023-06-22T03:18:05;7.03;;;6.53;;
9330;SDS011;4704;50.470;12.072;2023-06-22T03:20:32;7.05;;;6.45;;
9330;SDS011;4704;50.470;12.072;2023-06-22T03:23:00;7.22;;;6.70;;
9330;SDS011;4704;50.470;12.072;2023-06-22T03:25:28;6.90;;;6.40;;
9330;SDS011;4704;50.470;12.072;2023-06-22T03:27:55;6.70;;;6.20;;
9330;SDS011;4704;50.470;12.072;2023-06-22T03:30:24;6.57;;;6.18;;
9330;SDS011;4704;50.470;12.072;2023-06-22T03:32:52;6.53;;;6.03;;
9330;SDS011;4704;50.470;12.072;2023-06-22T03:35:19;7.20;;;6.60;;
9330;SDS011;4704;50.470;12.072;2023-06-22T03:37:47;6.70;;;6.20;;
9330;SDS011;4704;50.470;12.072;2023-06-22T03:40:14;6.60;;;6.20;;
9330;SDS011;4704;50.470;12.072;2023-06-22T03:42:42;6.93;;;6.32;;
9330;SDS011;4704;50.470;12.072;2023-06-22T03:45:10;7.35;;;6.82;;
9330;SDS011;4704;50.470;12.072;2023-06-22T03:47:39;6.60;;;6.20;;
9330;SDS011;4704;50.470;12.072;2023-06-22T03:50:07;7.22;;;6.72;;
9330;SDS011;4704;50.470;12.072;2023-06-22T03:52:34;7.22;;;6.72;;
9330;SDS011;4704;50.470;12.072;2023-06-22T03:55:02;7.07;;;6.47;;
9330;SDS011;4704;50.470;12.072;2023-06-22T03:57:30;6.93;;;6.35;;
9330;SDS011;4704;50.470;12.072;2023-06-22T03:59:57;7.47;;;6.70;;
9330;SDS011;4704;50.470;12.072;2023-06-22T04:02:25;7.10;;;6.60;;
9330;SDS011;4704;50.470;12.072;2023-06-22T04:04:54;6.75;;;6.25;;
9330;SDS011;4704;50.470;12.072;2023-06-22T04:07:21;7.00;;;6.50;;
9330;SDS011;4704;50.470;12.072;2023-06-22T04:09:49;7.18;;;6.68;;
9330;SDS011;4704;50.470;12.072;2023-06-22T04:12:16;6.68;;;6.18;;
9330;SDS011;4704;50.470;12.072;2023-06-22T04:14:44;7.57;;;6.97;;
9330;SDS011;4704;50.470;12.072;2023-06-22T04:17:11;7.07;;;6.57;;
9330;SDS011;4704;50.470;12.072;2023-06-22T04:19:39;7.15;;;6.65;;
9330;SDS011;4704;50.470;12.072;2023-06-22T04:22:08;7.20;;;6.57;;
9330;SDS011;4704;50.470;12.072;2023-06-22T04:24:35;7.22;;;6.72;;
9330;SDS011;4704;50.470;12.072;2023-06-22T04:27:03;7.22;;;6.70;;
9330;SDS011;4704;50.470;12.072;2023-06-22T04:29:31;7.25;;;6.75;;
9330;SDS011;4704;50.470;12.072;2023-06-22T04:31:58;7.38;;;6.85;;
9330;SDS011;4704;50.470;12.072;2023-06-22T04:34:28;6.97;;;6.47;;
9330;SDS011;4704;50.470;12.072;2023-06-22T04:36:56;6.93;;;6.43;;
9330;SDS011;4704;50.470;12.072;2023-06-22T04:39:24;7.13;;;6.53;;
9330;SDS011;4704;50.470;12.072;2023-06-22T04:41:52;7.72;;;7.13;;
9330;SDS011;4704;50.470;12.072;2023-06-22T04:44:24;7.93;;;7.32;;
9330;SDS011;4704;50.470;12.072;2023-06-22T04:46:52;7.95;;;7.35;;
9330;SDS011;4704;50.470;12.072;2023-06-22T04:49:25;7.03;;;6.53;;
9330;SDS011;4704;50.470;12.072;2023-06-22T04:51:58;8.18;;;7.47;;
9330;SDS011;4704;50.470;12.072;2023-06-22T04:54:26;7.65;;;7.15;;
9330;SDS011;4704;50.470;12.072;2023-06-22T04:56:54;8.00;;;7.40;;
9330;SDS011;4704;50.470;12.072;2023-06-22T04:59:22;7.85;;;7.30;;
9330;SDS011;4704;50.470;12.072;2023-06-22T05:01:53;7.57;;;7.07;;
9330;SDS011;4704;50.470;12.072;2023-06-22T05:04:21;8.57;;;7.88;;
9330;SDS011;4704;50.470;12.072;2023-06-22T05:06:49;7.85;;;7.15;;
9330;SDS011;4704;50.470;12.072;2023-06-22T05:09:16;7.68;;;7.18;;
9330;SDS011;4704;50.470;12.072;2023-06-22T05:11:45;8.27;;;7.68;;
9330;SDS011;4704;50.470;12.072;2023-06-22T05:14:13;8.55;;;7.95;;
9330;SDS011;4704;50.470;12.072;2023-06-22T05:16:41;8.73;;;8.13;;
9330;SDS011;4704;50.470;12.072;2023-06-22T05:19:08;8.95;;;8.25;;
9330;SDS011;4704;50.470;12.072;2023-06-22T05:21:36;8.63;;;7.93;;
9330;SDS011;4704;50.470;12.072;2023-06-22T05:24:04;9.57;;;8.75;;
9330;SDS011;4704;50.470;12.072;2023-06-22T05:26:31;9.05;;;8.35;;
9330;SDS011;4704;50.470;12.072;2023-06-22T05:32:04;8.30;;;7.70;;
9330;SDS011;4704;50.470;12.072;2023-06-22T05:34:31;8.70;;;8.02;;
9330;SDS011;4704;50.470;12.072;2023-06-22T05:36:58;8.77;;;8.07;;
9330;SDS011;4704;50.470;12.072;2023-06-22T05:39:26;8.80;;;8.10;;
9330;SDS011;4704;50.470;12.072;2023-06-22T05:41:53;8.65;;;7.95;;
9330;SDS011;4704;50.470;12.072;2023-06-22T05:44:21;8.85;;;8.07;;
9330;SDS011;4704;50.470;12.072;2023-06-22T05:46:48;8.80;;;8.13;;
9330;SDS011;4704;50.470;12.072;2023-06-22T05:49:17;8.43;;;7.82;;
9330;SDS011;4704;50.470;12.072;2023-06-22T05:51:44;9.40;;;8.70;;
9330;SDS011;4704;50.470;12.072;2023-06-22T05:54:11;8.75;;;8.15;;
9330;SDS011;4704;50.470;12.072;2023-06-22T05:56:40;8.98;;;8.25;;
9330;SDS011;4704;50.470;12.072;2023-06-22T05:59:08;9.35;;;8.65;;
9330;SDS011;4704;50.470;12.072;2023-06-22T06:01:35;9.13;;;8.52;;
9330;SDS011;4704;50.470;12.072;2023-06-22T06:04:02;9.45;;;8.65;;
9330;SDS011;4704;50.470;12.072;2023-06-22T06:06:31;9.23;;;8.52;;
9330;SDS011;4704;50.470;12.072;2023-06-22T06:09:02;8.90;;;8.20;;
9330;SDS011;4704;50.470;12.072;2023-06-22T06:11:29;8.80;;;8.10;;
9330;SDS011;4704;50.470;12.072;2023-06-22T06:13:57;9.20;;;8.38;;
9330;SDS011;4704;50.470;12.072;2023-06-22T06:16:24;8.95;;;8.25;;
9330;SDS011;4704;50.470;12.072;2023-06-22T06:18:52;8.82;;;8.05;;
9330;SDS011;4704;50.470;12.072;2023-06-22T06:21:21;9.20;;;8.52;;
9330;SDS011;4704;50.470;12.072;2023-06-22T06:23:49;8.60;;;8.00;;
9330;SDS011;4704;50.470;12.072;2023-06-22T06:26:26;8.88;;;8.07;;
9330;SDS011;4704;50.470;12.072;2023-06-22T06:28:59;8.82;;;8.13;;
9330;SDS011;4704;50.470;12.072;2023-06-22T06:31:27;8.73;;;8.00;;
9330;SDS011;4704;50.470;12.072;2023-06-22T06:33:55;8.77;;;8.07;;
9330;SDS011;4704;50.470;12.072;2023-06-22T06:36:22;9.55;;;8.80;;
9330;SDS011;4704;50.470;12.072;2023-06-22T06:38:51;8.68;;;7.93;;
9330;SDS011;4704;50.470;12.072;2023-06-22T06:41:18;9.13;;;8.43;;
9330;SDS011;4704;50.470;12.072;2023-06-22T06:43:46;8.70;;;8.00;;
9330;SDS011;4704;50.470;12.072;2023-06-22T06:46:13;8.93;;;8.13;;
9330;SDS011;4704;50.470;12.072;2023-06-22T06:48:40;9.32;;;8.45;;
9330;SDS011;4704;50.470;12.072;2023-06-22T06:51:08;8.52;;;7.82;;
9330;SDS011;4704;50.470;12.072;2023-06-22T06:53:35;8.80;;;8.10;;
9330;SDS011;4704;50.470;12.072;2023-06-22T06:56:04;8.63;;;7.82;;
9330;SDS011;4704;50.470;12.072;2023-06-22T06:58:31;9.40;;;8.50;;
9330;SDS011;4704;50.470;12.072;2023-06-22T07:00:59;9.15;;;8.45;;
9330;SDS011;4704;50.470;12.072;2023-06-22T07:03:26;8.80;;;8.10;;
9330;SDS011;4704;50.470;12.072;2023-06-22T07:05:53;8.82;;;8.13;;
9330;SDS011;4704;50.470;12.072;2023-06-22T07:08:21;8.40;;;7.80;;
9330;SDS011;4704;50.470;12.072;2023-06-22T07:10:48;9.25;;;8.55;;
9330;SDS011;4704;50.470;12.072;2023-06-22T07:13:17;9.27;;;8.50;;
9330;SDS011;4704;50.470;12.072;2023-06-22T07:15:44;9.15;;;8.35;;
9330;SDS011;4704;50.470;12.072;2023-06-22T07:18:12;9.30;;;8.52;;
9330;SDS011;4704;50.470;12.072;2023-06-22T07:20:39;9.00;;;8.30;;
9330;SDS011;4704;50.470;12.072;2023-06-22T07:23:07;9.20;;;8.50;;
9330;SDS011;4704;50.470;12.072;2023-06-22T07:25:34;9.70;;;8.77;;
9330;SDS011;4704;50.470;12.072;2023-06-22T07:28:02;9.30;;;8.50;;
9330;SDS011;4704;50.470;12.072;2023-06-22T07:30:31;9.00;;;8.30;;
9330;SDS011;4704;50.470;12.072;2023-06-22T07:32:59;9.32;;;8.52;;
9330;SDS011;4704;50.470;12.072;2023-06-22T07:35:29;8.73;;;8.02;;
9330;SDS011;4704;50.470;12.072;2023-06-22T07:37:56;9.00;;;8.30;;
9330;SDS011;4704;50.470;12.072;2023-06-22T07:40:24;8.90;;;8.10;;
9330;SDS011;4704;50.470;12.072;2023-06-22T07:42:51;8.70;;;8.10;;
9330;SDS011;4704;50.470;12.072;2023-06-22T07:45:18;9.68;;;8.88;;
9330;SDS011;4704;50.470;12.072;2023-06-22T07:47:47;9.45;;;8.65;;
9330;SDS011;4704;50.470;12.072;2023-06-22T07:50:14;9.02;;;8.32;;
9330;SDS011;4704;50.470;12.072;2023-06-22T07:52:42;9.70;;;8.90;;
9330;SDS011;4704;50.470;12.072;2023-06-22T07:55:09;9.15;;;8.45;;
9330;SDS011;4704;50.470;12.072;2023-06-22T07:57:36;9.63;;;8.90;;
9330;SDS011;4704;50.470;12.072;2023-06-22T08:00:04;9.98;;;9.18;;
9330;SDS011;4704;50.470;12.072;2023-06-22T08:02:39;10.30;;;9.25;;
9330;SDS011;4704;50.470;12.072;2023-06-22T08:05:09;9.98;;;9.20;;
9330;SDS011;4704;50.470;12.072;2023-06-22T08:07:36;9.95;;;9.13;;
9330;SDS011;4704;50.470;12.072;2023-06-22T08:10:04;9.93;;;9.13;;
9330;SDS011;4704;50.470;12.072;2023-06-22T08:12:32;9.10;;;8.45;;
9330;SDS011;4704;50.470;12.072;2023-06-22T08:14:59;9.98;;;9.18;;
9330;SDS011;4704;50.470;12.072;2023-06-22T08:17:27;9.60;;;8.90;;
9330;SDS011;4704;50.470;12.072;2023-06-22T08:19:54;9.48;;;8.77;;
9330;SDS011;4704;50.470;12.072;2023-06-22T08:22:23;10.18;;;9.38;;
9330;SDS011;4704;50.470;12.072;2023-06-22T08:24:51;9.57;;;8.77;;
9330;SDS011;4704;50.470;12.072;2023-06-22T08:27:19;9.27;;;8.57;;
9330;SDS011;4704;50.470;12.072;2023-06-22T08:29:48;9.77;;;9.07;;
9330;SDS011;4704;50.470;12.072;2023-06-22T08:32:16;10.55;;;9.75;;
9330;SDS011;4704;50.470;12.072;2023-06-22T08:34:44;9.77;;;8.98;;
9330;SDS011;4704;50.470;12.072;2023-06-22T08:37:11;9.73;;;9.02;;
9330;SDS011;4704;50.470;12.072;2023-06-22T08:39:40;10.40;;;9.60;;
9330;SDS011;4704;50.470;12.072;2023-06-22T08:42:07;9.68;;;8.98;;
9330;SDS011;4704;50.470;12.072;2023-06-22T08:44:35;10.15;;;9.35;;
9330;SDS011;4704;50.470;12.072;2023-06-22T08:47:02;10.80;;;9.90;;
9330;SDS011;4704;50.470;12.072;2023-06-22T08:49:29;9.52;;;8.82;;
9330;SDS011;4704;50.470;12.072;2023-06-22T08:51:57;10.07;;;9.38;;
9330;SDS011;4704;50.470;12.072;2023-06-22T08:54:24;9.82;;;9.05;;
9330;SDS011;4704;50.470;12.072;2023-06-22T08:56:53;9.77;;;8.98;;
9330;SDS011;4704;50.470;12.072;2023-06-22T08:59:20;9.65;;;8.88;;
9330;SDS011;4704;50.470;12.072;2023-06-22T09:01:47;9.73;;;8.93;;
9330;SDS011;4704;50.470;12.072;2023-06-22T09:04:15;10.20;;;9.40;;
9330;SDS011;4704;50.470;12.072;2023-06-22T09:06:42;8.90;;;8.20;;
9330;SDS011;4704;50.470;12.072;2023-06-22T09:09:12;9.90;;;9.10;;
9330;SDS011;4704;50.470;12.072;2023-06-22T09:11:39;9.82;;;9.02;;
9330;SDS011;4704;50.470;12.072;2023-06-22T09:14:08;9.98;;;9.18;;
9330;SDS011;4704;50.470;12.072;2023-06-22T09:16:35;10.00;;;9.20;;
9330;SDS011;4704;50.470;12.072;2023-06-22T09:19:02;9.35;;;8.65;;
9330;SDS011;4704;50.470;12.072;2023-06-22T09:21:30;9.75;;;9.05;;
9330;SDS011;4704;50.470;12.072;2023-06-22T09:23:57;9.30;;;8.63;;
9330;SDS011;4704;50.470;12.072;2023-06-22T09:26:24;9.80;;;9.00;;
9330;SDS011;4704;50.470;12.072;2023-06-22T09:28:52;9.65;;;8.90;;
9330;SDS011;4704;50.470;12.072;2023-06-22T09:31:20;9.88;;;9.10;;
9330;SDS011;4704;50.470;12.072;2023-06-22T09:33:51;9.27;;;8.43;;
9330;SDS011;4704;50.470;12.072;2023-06-22T09:36:19;8.90;;;8.27;;
9330;SDS011;4704;50.470;12.072;2023-06-22T09:38:47;10.00;;;9.20;;
9330;SDS011;4704;50.470;12.072;2023-06-22T09:41:20;9.35;;;8.57;;
9330;SDS011;4704;50.470;12.072;2023-06-22T09:43:47;9.90;;;9.20;;
9330;SDS011;4704;50.470;12.072;2023-06-22T09:46:14;9.10;;;8.40;;
9330;SDS011;4704;50.470;12.072;2023-06-22T09:48:43;9.75;;;9.05;;
9330;SDS011;4704;50.470;12.072;2023-06-22T09:51:11;9.40;;;8.70;;
9330;SDS011;4704;50.470;12.072;2023-06-22T09:53:38;9.85;;;9.05;;
9330;SDS011;4704;50.470;12.072;2023-06-22T09:56:06;9.57;;;8.88;;
9330;SDS011;4704;50.470;12.072;2023-06-22T09:58:36;10.18;;;9.38;;
9330;SDS011;4704;50.470;12.072;2023-06-22T10:01:03;9.57;;;8.63;;
9330;SDS011;4704;50.470;12.072;2023-06-22T10:03:31;10.13;;;9.43;;
9330;SDS011;4704;50.470;12.072;2023-06-22T10:05:59;9.57;;;8.77;;
9330;SDS011;4704;50.470;12.072;2023-06-22T10:08:27;10.10;;;9.30;;
9330;SDS011;4704;50.470;12.072;2023-06-22T10:10:54;9.80;;;9.00;;
9330;SDS011;4704;50.470;12.072;2023-06-22T10:13:22;9.82;;;9.02;;
9330;SDS011;4704;50.470;12.072;2023-06-22T10:15:49;10.00;;;9.10;;
9330;SDS011;4704;50.470;12.072;2023-06-22T10:18:17;9.27;;;8.57;;
9330;SDS011;4704;50.470;12.072;2023-06-22T10:20:48;10.10;;;9.30;;
9330;SDS011;4704;50.470;12.072;2023-06-22T10:23:18;9.45;;;8.65;;
9330;SDS011;4704;50.470;12.072;2023-06-22T10:25:45;9.50;;;8.60;;
9330;SDS011;4704;50.470;12.072;2023-06-22T10:28:12;9.57;;;8.85;;
9330;SDS011;4704;50.470;12.072;2023-06-22T10:30:40;9.57;;;8.88;;
9330;SDS011;4704;50.470;12.072;2023-06-22T10:33:07;8.95;;;8.25;;
9330;SDS011;4704;50.470;12.072;2023-06-22T10:35:34;9.00;;;8.30;;
9330;SDS011;4704;50.470;12.072;2023-06-22T10:38:02;9.20;;;8.55;;
9330;SDS011;4704;50.470;12.072;2023-06-22T10:40:32;9.40;;;8.65;;
9330;SDS011;4704;50.470;12.072;2023-06-22T10:42:59;8.40;;;7.80;;
9330;SDS011;4704;50.470;12.072;2023-06-22T10:45:27;8.65;;;7.95;;
9330;SDS011;4704;50.470;12.072;2023-06-22T10:47:54;8.85;;;8.25;;
9330;SDS011;4704;50.470;12.072;2023-06-22T10:50:21;8.57;;;7.90;;
9330;SDS011;4704;50.470;12.072;2023-06-22T10:52:49;9.05;;;8.35;;
9330;SDS011;4704;50.470;12.072;2023-06-22T10:55:16;8.98;;;8.35;;
9330;SDS011;4704;50.470;12.072;2023-06-22T10:57:45;8.65;;;8.05;;
9330;SDS011;4704;50.470;12.072;2023-06-22T11:00:13;8.88;;;8.18;;
9330;SDS011;4704;50.470;12.072;2023-06-22T11:02:41;8.75;;;7.95;;
9330;SDS011;4704;50.470;12.072;2023-06-22T11:05:08;8.02;;;7.43;;
9330;SDS011;4704;50.470;12.072;2023-06-22T11:07:36;8.82;;;8.18;;
9330;SDS011;4704;50.470;12.072;2023-06-22T11:10:04;8.82;;;8.23;;
9330;SDS011;4704;50.470;12.072;2023-06-22T11:12:32;9.15;;;8.38;;
9330;SDS011;4704;50.470;12.072;2023-06-22T11:15:00;8.52;;;7.93;;
9330;SDS011;4704;50.470;12.072;2023-06-22T11:17:28;8.65;;;8.05;;
9330;SDS011;4704;50.470;12.072;2023-06-22T11:19:55;9.27;;;8.52;;
9330;SDS011;4704;50.470;12.072;2023-06-22T11:22:24;8.60;;;8.00;;
9330;SDS011;4704;50.470;12.072;2023-06-22T11:24:51;8.77;;;8.07;;
9330;SDS011;4704;50.470;12.072;2023-06-22T11:27:18;8.75;;;7.95;;
9330;SDS011;4704;50.470;12.072;2023-06-22T11:29:45;8.90;;;8.30;;
9330;SDS011;4704;50.470;12.072;2023-06-22T11:32:14;8.80;;;8.10;;
9330;SDS011;4704;50.470;12.072;2023-06-22T11:34:42;8.75;;;7.97;;
9330;SDS011;4704;50.470;12.072;2023-06-22T11:37:09;8.70;;;8.05;;
9330;SDS011;4704;50.470;12.072;2023-06-22T11:39:36;8.10;;;7.50;;
9330;SDS011;4704;50.470;12.072;2023-06-22T11:42:03;8.85;;;8.15;;
9330;SDS011;4704;50.470;12.072;2023-06-22T11:44:31;8.70;;;8.07;;
9330;SDS011;4704;50.470;12.072;2023-06-22T11:46:58;8.75;;;8.05;;
9330;SDS011;4704;50.470;12.072;2023-06-22T11:49:30;8.05;;;7.45;;
9330;SDS011;4704;50.470;12.072;2023-06-22T11:51:57;8.80;;;8.05;;
9330;SDS011;4704;50.470;12.072;2023-06-22T11:54:25;8.23;;;7.53;;
9330;SDS011;4704;50.470;12.072;2023-06-22T11:56:52;8.13;;;7.47;;
9330;SDS011;4704;50.470;12.072;2023-06-22T11:59:20;7.72;;;7.22;;
9330;SDS011;4704;50.470;12.072;2023-06-22T12:01:47;8.27;;;7.68;;
9330;SDS011;4704;50.470;12.072;2023-06-22T12:04:16;7.90;;;7.20;;
9330;SDS011;4704;50.470;12.072;2023-06-22T12:06:44;7.93;;;7.22;;
9330;SDS011;4704;50.470;12.072;2023-06-22T12:09:12;8.20;;;7.50;;
9330;SDS011;4704;50.470;12.072;2023-06-22T12:11:39;7.40;;;6.90;;
9330;SDS011;4704;50.470;12.072;2023-06-22T12:14:07;8.00;;;7.40;;
9330;SDS011;4704;50.470;12.072;2023-06-22T12:16:34;8.00;;;7.40;;
9330;SDS011;4704;50.470;12.072;2023-06-22T12:19:01;8.55;;;7.55;;
9330;SDS011;4704;50.470;12.072;2023-06-22T12:21:28;8.27;;;7.55;;
9330;SDS011;4704;50.470;12.072;2023-06-22T12:23:57;7.55;;;6.95;;
9330;SDS011;4704;50.470;12.072;2023-06-22T12:26:25;8.00;;;7.30;;
9330;SDS011;4704;50.470;12.072;2023-06-22T12:28:52;7.40;;;6.80;;
9330;SDS011;4704;50.470;12.072;2023-06-22T12:31:22;7.20;;;6.70;;
9330;SDS011;4704;50.470;12.072;2023-06-22T12:33:49;7.63;;;7.03;;
9330;SDS011;4704;50.470;12.072;2023-06-22T12:36:16;7.25;;;6.75;;
9330;SDS011;4704;50.470;12.072;2023-06-22T12:38:43;7.40;;;6.80;;
9330;SDS011;4704;50.470;12.072;2023-06-22T12:41:12;8.00;;;7.30;;
9330;SDS011;4704;50.470;12.072;2023-06-22T12:43:41;7.65;;;7.05;;
9330;SDS011;4704;50.470;12.072;2023-06-22T12:46:08;8.38;;;7.68;;
9330;SDS011;4704;50.470;12.072;2023-06-22T12:48:35;8.20;;;7.40;;
9330;SDS011;4704;50.470;12.072;2023-06-22T12:51:06;7.63;;;6.93;;
9330;SDS011;4704;50.470;12.072;2023-06-22T12:53:34;8.35;;;7.57;;
9330;SDS011;4704;50.470;12.072;2023-06-22T12:56:01;7.90;;;7.28;;
9330;SDS011;4704;50.470;12.072;2023-06-22T12:58:30;8.38;;;7.68;;
9330;SDS011;4704;50.470;12.072;2023-06-22T13:00:57;8.50;;;7.80;;
9330;SDS011;4704;50.470;12.072;2023-06-22T13:03:25;9.55;;;7.90;;
9330;SDS011;4704;50.470;12.072;2023-06-22T13:05:53;8.27;;;7.60;;
9330;SDS011;4704;50.470;12.072;2023-06-22T13:08:20;8.43;;;7.60;;
9330;SDS011;4704;50.470;12.072;2023-06-22T13:10:48;8.27;;;7.57;;
9330;SDS011;4704;50.470;12.072;2023-06-22T13:13:15;8.25;;;7.65;;
9330;SDS011;4704;50.470;12.072;2023-06-22T13:15:44;7.93;;;7.22;;
9330;SDS011;4704;50.470;12.072;2023-06-22T13:18:11;8.30;;;7.60;;
9330;SDS011;4704;50.470;12.072;2023-06-22T13:20:39;7.72;;;7.05;;
9330;SDS011;4704;50.470;12.072;2023-06-22T13:23:06;8.52;;;7.75;;
9330;SDS011;4704;50.470;12.072;2023-06-22T13:25:33;8.90;;;7.53;;
9330;SDS011;4704;50.470;12.072;2023-06-22T13:28:01;8.13;;;7.43;;
9330;SDS011;4704;50.470;12.072;2023-06-22T13:30:28;8.45;;;7.72;;
9330;SDS011;4704;50.470;12.072;2023-06-22T13:32:58;8.15;;;7.38;;
9330;SDS011;4704;50.470;12.072;2023-06-22T13:35:25;7.80;;;7.15;;
9330;SDS011;4704;50.470;12.072;2023-06-22T13:37:53;8.00;;;7.30;;
9330;SDS011;4704;50.470;12.072;2023-06-22T13:49:38;7.68;;;7.00;;
9330;SDS011;4704;50.470;12.072;2023-06-22T13:52:06;8.45;;;7.72;;
9330;SDS011;4704;50.470;12.072;2023-06-22T13:54:35;8.00;;;7.20;;
9330;SDS011;4704;50.470;12.072;2023-06-22T13:57:03;7.68;;;7.07;;
9330;SDS011;4704;50.470;12.072;2023-06-22T13:59:30;7.82;;;7.13;;
9330;SDS011;4704;50.470;12.072;2023-06-22T14:01:57;6.95;;;6.45;;
9330;SDS011;4704;50.470;12.072;2023-06-22T14:04:25;7.70;;;7.00;;
9330;SDS011;4704;50.470;12.072;2023-06-22T14:06:55;8.20;;;7.50;;
9330;SDS011;4704;50.470;12.072;2023-06-22T14:09:23;8.00;;;7.32;;
9330;SDS011;4704;50.470;12.072;2023-06-22T14:11:50;7.90;;;7.20;;
9330;SDS011;4704;50.470;12.072;2023-06-22T14:14:17;7.32;;;6.63;;
9330;SDS011;4704;50.470;12.072;2023-06-22T14:16:45;8.02;;;7.22;;
9330;SDS011;4704;50.470;12.072;2023-06-22T14:19:14;7.80;;;7.10;;
9330;SDS011;4704;50.470;12.072;2023-06-22T14:21:41;8.23;;;7.53;;
9330;SDS011;4704;50.470;12.072;2023-06-22T14:24:10;7.90;;;7.20;;
9330;SDS011;4704;50.470;12.072;2023-06-22T14:26:38;7.47;;;6.63;;
9330;SDS011;4704;50.470;12.072;2023-06-22T14:29:05;7.22;;;6.63;;
9330;SDS011;4704;50.470;12.072;2023-06-22T14:31:32;7.93;;;7.13;;
9330;SDS011;4704;50.470;12.072;2023-06-22T14:34:00;7.07;;;6.47;;
9330;SDS011;4704;50.470;12.072;2023-06-22T14:36:30;7.20;;;6.60;;
9330;SDS011;4704;50.470;12.072;2023-06-22T14:38:58;7.75;;;7.10;;
9330;SDS011;4704;50.470;12.072;2023-06-22T14:41:26;7.65;;;6.95;;
9330;SDS011;4704;50.470;12.072;2023-06-22T14:43:54;7.50;;;6.80;;
9330;SDS011;4704;50.470;12.072;2023-06-22T14:46:21;7.38;;;6.68;;
9330;SDS011;4704;50.470;12.072;2023-06-22T14:48:48;7.53;;;6.82;;
9330;SDS011;4704;50.470;12.072;2023-06-22T14:51:16;7.43;;;6.82;;
9330;SDS011;4704;50.470;12.072;2023-06-22T14:53:44;7.28;;;6.60;;
9330;SDS011;4704;50.470;12.072;2023-06-22T14:56:12;7.28;;;6.63;;
9330;SDS011;4704;50.470;12.072;2023-06-22T14:58:41;7.68;;;6.80;;
9330;SDS011;4704;50.470;12.072;2023-06-22T15:01:11;7.13;;;6.53;;
9330;SDS011;4704;50.470;12.072;2023-06-22T15:03:38;8.45;;;6.70;;
9330;SDS011;4704;50.470;12.072;2023-06-22T15:06:06;6.65;;;6.05;;
9330;SDS011;4704;50.470;12.072;2023-06-22T15:08:33;7.15;;;6.43;;
9330;SDS011;4704;50.470;12.072;2023-06-22T15:11:01;6.95;;;6.35;;
9330;SDS011;4704;50.470;12.072;2023-06-22T15:13:29;7.72;;;6.30;;
9330;SDS011;4704;50.470;12.072;2023-06-22T15:16:00;7.03;;;6.43;;
9330;SDS011;4704;50.470;12.072;2023-06-22T15:18:28;6.95;;;6.25;;